createdAt,value
2022-12-11T00:00:58.254Z,20.67
2022-12-11T00:03:26.134Z,19.75
2022-12-11T00:05:54.104Z,20.75
2022-12-11T00:08:22.338Z,21.70
2022-12-11T00:10:52.272Z,22.38
2022-12-11T00:13:20.328Z,21.98
2022-12-11T00:15:48.186Z,19.33
2022-12-11T00:18:16.250Z,19.42
2022-12-11T00:20:44.175Z,19.40
2022-12-11T00:23:12.557Z,19.55
2022-12-11T00:25:44.910Z,22.45
2022-12-11T00:28:17.668Z,21.15
2022-12-11T00:30:45.916Z,20.88
2022-12-11T00:33:15.072Z,19.17
2022-12-11T00:35:44.755Z,20.80
2022-12-11T00:38:16.464Z,20.85
2022-12-11T00:40:44.775Z,20.33
2022-12-11T00:43:15.259Z,21.92
2022-12-11T00:45:44.898Z,20.10
2022-12-11T00:48:14.384Z,20.88
2022-12-11T00:50:42.390Z,21.95
2022-12-11T00:53:10.169Z,19.70
2022-12-11T00:55:38.952Z,19.92
2022-12-11T00:58:07.121Z,21.08
2022-12-11T01:00:36.495Z,20.05
2022-12-11T01:03:05.183Z,17.63
2022-12-11T01:05:33.952Z,20.95
2022-12-11T01:08:01.791Z,19.80
2022-12-11T01:10:29.922Z,20.92
2022-12-11T01:13:00.390Z,18.92
2022-12-11T01:15:30.565Z,20.30
2022-12-11T01:17:59.966Z,19.05
2022-12-11T01:20:31.669Z,20.67
2022-12-11T01:23:01.166Z,21.42
2022-12-11T01:25:29.640Z,21.42
2022-12-11T01:27:58.655Z,19.20
2022-12-11T01:30:27.334Z,19.45
2022-12-11T01:32:55.268Z,18.15
2022-12-11T01:35:25.143Z,22.25
2022-12-11T01:37:53.113Z,20.77
2022-12-11T01:40:25.101Z,19.80
2022-12-11T01:42:54.214Z,20.58
2022-12-11T01:45:38.541Z,19.65
2022-12-11T01:48:10.400Z,18.25
2022-12-11T01:50:44.872Z,20.67
2022-12-11T01:53:17.834Z,17.92
2022-12-11T01:55:47.488Z,18.20
2022-12-11T01:58:17.241Z,20.25
2022-12-11T02:00:45.148Z,17.50
2022-12-11T02:03:13.357Z,18.55
2022-12-11T02:05:42.791Z,21.33
2022-12-11T02:08:12.480Z,18.70
2022-12-11T02:10:54.995Z,18.83
2022-12-11T02:13:28.510Z,17.60
2022-12-11T02:16:01.666Z,17.23
2022-12-11T02:18:36.230Z,18.45
2022-12-11T02:21:11.722Z,17.67
2022-12-11T02:24:01.605Z,17.75
2022-12-11T02:26:44.468Z,19.25
2022-12-11T02:29:20.932Z,19.58
2022-12-11T02:31:54.421Z,18.15
2022-12-11T02:34:27.597Z,17.15
2022-12-11T02:37:00.272Z,19.65
2022-12-11T02:39:29.635Z,19.40
2022-12-11T02:41:58.011Z,18.95
2022-12-11T02:44:30.370Z,16.98
2022-12-11T02:47:00.067Z,18.17
2022-12-11T02:49:29.976Z,18.40
2022-12-11T02:51:59.084Z,18.38
2022-12-11T02:54:30.001Z,19.63
2022-12-11T02:57:03.708Z,20.33
2022-12-11T02:59:37.367Z,21.05
2022-12-11T03:02:05.721Z,20.15
2022-12-11T03:04:36.226Z,19.83
2022-12-11T03:07:12.342Z,19.05
2022-12-11T03:09:40.616Z,19.20
2022-12-11T03:12:11.074Z,20.73
2022-12-11T03:14:41.912Z,21.02
2022-12-11T03:17:14.859Z,19.83
2022-12-11T03:19:49.587Z,19.65
2022-12-11T03:22:22.042Z,21.02
2022-12-11T03:24:53.533Z,19.75
2022-12-11T03:27:27.895Z,18.10
2022-12-11T03:30:01.456Z,19.70
2022-12-11T03:32:32.963Z,20.35
2022-12-11T03:35:06.300Z,18.30
2022-12-11T03:37:38.158Z,19.70
2022-12-11T03:40:11.870Z,21.95
2022-12-11T03:42:41.204Z,20.10
2022-12-11T03:45:11.988Z,18.67
2022-12-11T03:47:42.163Z,18.42
2022-12-11T03:50:13.040Z,18.95
2022-12-11T03:52:45.710Z,18.25
2022-12-11T03:55:16.908Z,18.08
2022-12-11T03:57:45.321Z,17.55
2022-12-11T04:00:18.602Z,17.58
2022-12-11T04:03:12.962Z,20.05
2022-12-11T04:05:42.652Z,20.70
2022-12-11T04:08:11.295Z,18.98
2022-12-11T04:10:41.016Z,19.98
2022-12-11T04:13:09.649Z,21.27
2022-12-11T04:15:39.164Z,20.23
2022-12-11T04:18:25.633Z,20.85
2022-12-11T04:21:12.070Z,19.55
2022-12-11T04:23:57.634Z,20.95
2022-12-11T04:26:25.887Z,20.92
2022-12-11T04:28:53.823Z,18.60
2022-12-11T04:31:24.413Z,19.67
2022-12-11T04:33:53.772Z,22.15
2022-12-11T04:36:21.977Z,20.30
2022-12-11T04:38:50.049Z,17.90
2022-12-11T04:41:18.336Z,18.10
2022-12-11T04:43:46.647Z,18.52
2022-12-11T04:46:16.698Z,19.55
2022-12-11T04:48:46.389Z,20.83
2022-12-11T04:51:14.904Z,20.48
2022-12-11T04:53:43.381Z,20.95
2022-12-11T04:56:13.877Z,19.50
2022-12-11T04:58:43.190Z,19.65
2022-12-11T05:01:12.058Z,19.10
2022-12-11T05:03:40.438Z,19.35
2022-12-11T05:06:10.831Z,19.20
2022-12-11T05:08:41.356Z,19.45
2022-12-11T05:11:12.362Z,19.30
2022-12-11T05:13:42.007Z,20.02
2022-12-11T05:16:15.397Z,19.45
2022-12-11T05:18:43.319Z,19.40
2022-12-11T05:21:14.539Z,18.40
2022-12-11T05:23:43.261Z,19.92
2022-12-11T05:26:15.667Z,18.67
2022-12-11T05:28:44.248Z,18.05
2022-12-11T05:31:14.731Z,17.60
2022-12-11T05:33:43.356Z,17.60
2022-12-11T05:36:16.789Z,18.23
2022-12-11T05:38:44.846Z,19.27
2022-12-11T05:41:15.710Z,18.20
2022-12-11T05:43:43.745Z,17.30
2022-12-11T05:46:15.119Z,18.02
2022-12-11T05:48:44.970Z,19.05
2022-12-11T05:51:15.741Z,18.98
2022-12-11T05:53:45.174Z,16.92
2022-12-11T05:56:15.410Z,16.45
2022-12-11T05:58:45.186Z,16.88
2022-12-11T06:01:15.122Z,18.52
2022-12-11T06:03:43.707Z,18.60
2022-12-11T06:06:12.283Z,16.38
2022-12-11T06:08:41.544Z,16.95
2022-12-11T06:11:09.991Z,16.70
2022-12-11T06:13:37.924Z,16.75
2022-12-11T06:16:08.553Z,18.80
2022-12-11T06:18:37.534Z,17.38
2022-12-11T06:21:13.356Z,17.52
2022-12-11T06:23:43.254Z,18.10
2022-12-11T06:26:12.266Z,17.10
2022-12-11T06:28:41.078Z,19.23
2022-12-11T06:31:09.190Z,17.10
2022-12-11T06:33:37.317Z,17.67
2022-12-11T06:36:06.048Z,15.65
2022-12-11T06:38:34.345Z,20.45
2022-12-11T06:41:05.721Z,18.30
2022-12-11T06:43:34.509Z,15.73
2022-12-11T06:46:05.524Z,15.25
2022-12-11T06:48:33.413Z,17.85
2022-12-11T06:51:05.548Z,16.58
2022-12-11T06:53:33.386Z,16.17
2022-12-11T06:56:05.362Z,18.48
2022-12-11T06:58:35.262Z,18.17
2022-12-11T07:01:03.464Z,19.05
2022-12-11T07:03:31.518Z,19.77
2022-12-11T07:06:02.253Z,17.58
2022-12-11T07:08:31.877Z,20.08
2022-12-11T07:11:05.457Z,20.48
2022-12-11T07:13:33.692Z,17.75
2022-12-11T07:16:02.006Z,19.60
2022-12-11T07:18:30.226Z,19.73
2022-12-11T07:21:00.114Z,19.05
2022-12-11T07:23:28.189Z,18.83
2022-12-11T07:25:57.734Z,16.98
2022-12-11T07:28:27.217Z,17.30
2022-12-11T07:30:55.133Z,17.35
2022-12-11T07:33:22.989Z,18.52
2022-12-11T07:35:50.906Z,18.40
2022-12-11T07:38:18.829Z,19.10
2022-12-11T07:40:46.737Z,19.33
2022-12-11T07:43:14.653Z,18.40
2022-12-11T07:45:43.987Z,17.08
2022-12-11T07:48:12.725Z,18.27
2022-12-11T07:50:40.611Z,16.63
2022-12-11T07:53:08.713Z,16.90
2022-12-11T07:55:36.585Z,17.35
2022-12-11T07:58:04.822Z,17.27
2022-12-11T08:00:32.681Z,19.63
2022-12-11T08:03:02.073Z,16.25
2022-12-11T08:05:29.973Z,20.15
2022-12-11T08:07:57.895Z,18.65
2022-12-11T08:10:26.044Z,18.98
2022-12-11T08:12:54.249Z,17.48
2022-12-11T08:15:23.466Z,16.65
2022-12-11T08:17:51.319Z,20.00
2022-12-11T08:20:20.846Z,19.33
2022-12-11T08:22:48.799Z,15.95
2022-12-11T08:25:16.732Z,19.98
2022-12-11T08:27:44.603Z,16.63
2022-12-11T08:30:13.257Z,17.33
2022-12-11T08:32:41.127Z,16.17
2022-12-11T08:35:10.267Z,17.20
2022-12-11T08:37:40.101Z,15.93
2022-12-11T08:40:10.725Z,15.45
2022-12-11T08:42:38.600Z,18.02
2022-12-11T08:45:07.699Z,15.85
2022-12-11T08:47:35.622Z,15.33
2022-12-11T08:50:03.474Z,15.67
2022-12-11T08:52:31.509Z,16.80
2022-12-11T08:55:00.657Z,14.98
2022-12-11T08:57:29.609Z,13.88
2022-12-11T08:59:57.889Z,16.02
2022-12-11T09:02:26.969Z,17.67
2022-12-11T09:04:54.982Z,15.63
2022-12-11T09:07:22.929Z,15.73
2022-12-11T09:09:50.805Z,15.38
2022-12-11T09:12:19.978Z,14.38
2022-12-11T09:14:47.774Z,15.55
2022-12-11T09:17:15.807Z,16.27
2022-12-11T09:19:43.848Z,16.63
2022-12-11T09:22:12.668Z,18.90
2022-12-11T09:24:40.729Z,17.35
2022-12-11T09:27:08.630Z,15.30
2022-12-11T09:29:38.126Z,16.13
2022-12-11T09:32:06.718Z,16.13
2022-12-11T09:34:34.648Z,18.15
2022-12-11T09:37:03.156Z,18.38
2022-12-11T09:39:30.979Z,15.60
2022-12-11T09:42:06.126Z,13.18
2022-12-11T09:44:40.977Z,14.80
2022-12-11T09:47:23.115Z,15.85
2022-12-11T09:49:54.333Z,14.95
2022-12-11T09:52:27.393Z,15.93
2022-12-11T09:54:58.852Z,13.43
2022-12-11T09:57:38.776Z,13.88
2022-12-11T10:00:21.138Z,14.48
2022-12-11T10:03:10.678Z,14.38
2022-12-11T10:05:46.305Z,14.65
2022-12-11T10:08:20.368Z,14.40
2022-12-11T10:10:56.962Z,12.88
2022-12-11T10:13:34.264Z,12.60
2022-12-11T10:16:16.962Z,15.20
2022-12-11T10:18:45.404Z,13.05
2022-12-11T10:21:15.471Z,14.52
2022-12-11T10:23:48.986Z,16.70
2022-12-11T10:26:19.291Z,14.70
2022-12-11T10:28:47.258Z,14.00
2022-12-11T10:31:19.545Z,13.00
2022-12-11T10:33:58.719Z,14.80
2022-12-11T10:36:30.660Z,13.60
2022-12-11T10:38:58.829Z,11.35
2022-12-11T10:41:39.099Z,11.82
2022-12-11T10:44:17.494Z,13.75
2022-12-11T10:46:47.628Z,10.35
2022-12-11T10:49:23.838Z,13.48
2022-12-11T10:51:53.148Z,12.27
2022-12-11T10:54:31.958Z,11.07
2022-12-11T10:57:01.286Z,11.45
2022-12-11T10:59:37.469Z,13.35
2022-12-11T11:02:19.047Z,11.80
2022-12-11T11:04:47.096Z,11.10
2022-12-11T11:07:20.579Z,12.85
2022-12-11T11:09:48.681Z,12.10
2022-12-11T11:12:23.441Z,12.75
2022-12-11T11:15:02.151Z,9.95
2022-12-11T11:17:35.171Z,10.82
2022-12-11T11:20:13.797Z,11.95
2022-12-11T11:22:46.312Z,11.48
2022-12-11T11:25:20.506Z,10.77
2022-12-11T11:27:52.898Z,12.63
2022-12-11T11:30:23.579Z,12.90
2022-12-11T11:32:56.230Z,10.25
2022-12-11T11:35:26.687Z,12.00
2022-12-11T11:38:14.243Z,12.25
2022-12-11T11:40:47.700Z,12.10
2022-12-11T11:43:22.496Z,12.45
2022-12-11T11:45:56.190Z,11.93
2022-12-11T11:48:34.175Z,12.30
2022-12-11T11:51:09.022Z,12.70
2022-12-11T11:53:41.527Z,12.95
2022-12-11T11:56:19.925Z,13.27
2022-12-11T11:58:56.157Z,13.43
2022-12-11T12:01:24.600Z,13.18
2022-12-11T12:03:54.080Z,13.43
2022-12-11T12:06:32.660Z,15.13
2022-12-11T12:09:13.004Z,13.98
2022-12-11T12:11:47.781Z,12.48
2022-12-11T12:14:51.169Z,13.73
2022-12-11T12:17:21.427Z,15.45
2022-12-11T12:20:00.696Z,14.05
2022-12-11T12:22:44.244Z,13.50
2022-12-11T12:25:19.848Z,14.00
2022-12-11T12:27:55.045Z,14.88
2022-12-11T12:30:24.055Z,14.18
2022-12-11T12:33:12.441Z,13.30
2022-12-11T12:35:51.534Z,14.13
2022-12-11T12:38:24.559Z,15.25
2022-12-11T12:41:02.134Z,14.00
2022-12-11T12:43:58.283Z,14.35
2022-12-11T12:46:35.772Z,12.45
2022-12-11T12:49:04.744Z,15.23
2022-12-11T12:51:34.364Z,16.05
2022-12-11T12:54:11.948Z,13.90
2022-12-11T12:56:43.519Z,16.83
2022-12-11T12:59:20.596Z,15.32
2022-12-11T13:01:49.642Z,16.15
2022-12-11T13:04:54.941Z,14.38
2022-12-11T13:07:27.143Z,13.93
2022-12-11T13:10:08.533Z,14.07
2022-12-11T13:12:45.379Z,15.05
2022-12-11T13:15:39.002Z,15.18
2022-12-11T13:18:24.381Z,14.32
2022-12-11T13:20:53.165Z,14.20
2022-12-11T13:23:28.765Z,14.55
2022-12-11T13:25:58.043Z,15.27
2022-12-11T13:28:29.645Z,15.23
2022-12-11T13:31:26.089Z,14.25
2022-12-11T13:33:58.409Z,15.25
2022-12-11T13:36:33.124Z,17.15
2022-12-11T13:39:08.337Z,13.20
2022-12-11T13:41:38.486Z,13.98
2022-12-11T13:44:08.158Z,14.35
2022-12-11T13:46:38.279Z,15.48
2022-12-11T13:49:09.597Z,16.05
2022-12-11T13:51:37.847Z,15.30
2022-12-11T13:54:17.199Z,15.93
2022-12-11T13:56:55.881Z,15.63
2022-12-11T13:59:27.066Z,16.23
2022-12-11T14:01:58.211Z,13.55
2022-12-11T14:04:28.100Z,14.52
2022-12-11T14:06:57.404Z,13.77
2022-12-11T14:09:29.125Z,15.40
2022-12-11T14:12:00.198Z,18.83
2022-12-11T14:14:39.500Z,17.80
2022-12-11T14:17:07.557Z,14.43
2022-12-11T14:19:35.517Z,15.60
2022-12-11T14:22:05.408Z,17.13
2022-12-11T14:24:34.810Z,15.02
2022-12-11T14:27:04.666Z,13.13
2022-12-11T14:29:34.681Z,14.15
2022-12-11T14:32:05.622Z,14.00
2022-12-11T14:34:37.497Z,14.82
2022-12-11T14:37:08.537Z,14.32
2022-12-11T14:39:41.892Z,13.48
2022-12-11T14:42:15.133Z,12.82
2022-12-11T14:44:49.631Z,12.77
2022-12-11T14:47:20.878Z,14.40
2022-12-11T14:49:54.157Z,12.75
2022-12-11T14:52:26.016Z,12.40
2022-12-11T14:55:01.411Z,15.30
2022-12-11T14:57:33.214Z,13.55
2022-12-11T15:00:01.886Z,14.85
2022-12-11T15:02:32.502Z,14.23
2022-12-11T15:05:13.898Z,13.25
2022-12-11T15:07:43.542Z,13.00
2022-12-11T15:10:25.756Z,15.13
2022-12-11T15:12:54.721Z,15.35
2022-12-11T15:15:23.967Z,15.35
2022-12-11T15:17:53.205Z,13.07
2022-12-11T15:20:28.034Z,13.35
2022-12-11T15:22:59.409Z,13.10
2022-12-11T15:25:30.328Z,14.73
2022-12-11T15:28:00.739Z,14.18
2022-12-11T15:30:35.664Z,14.13
2022-12-11T15:33:22.006Z,14.45
2022-12-11T15:35:59.582Z,13.68
2022-12-11T15:38:36.726Z,14.43
2022-12-11T15:41:08.511Z,13.88
2022-12-11T15:43:38.320Z,13.55
2022-12-11T15:46:07.301Z,15.13
2022-12-11T15:48:35.518Z,16.13
2022-12-11T15:51:03.938Z,14.20
2022-12-11T15:53:31.931Z,15.55
2022-12-11T15:56:00.935Z,14.48
2022-12-11T15:58:30.796Z,15.07
2022-12-11T16:00:59.013Z,15.07
2022-12-11T16:03:27.407Z,15.10
2022-12-11T16:05:55.322Z,16.00
2022-12-11T16:08:24.377Z,14.25
2022-12-11T16:10:54.333Z,18.13
2022-12-11T16:13:23.288Z,16.25
2022-12-11T16:15:53.701Z,16.92
2022-12-11T16:18:23.834Z,16.58
2022-12-11T16:20:52.491Z,18.27
2022-12-11T16:23:20.957Z,18.88
2022-12-11T16:25:49.285Z,18.70
2022-12-11T16:28:20.693Z,18.08
2022-12-11T16:30:49.116Z,16.70
2022-12-11T16:33:20.933Z,17.30
2022-12-11T16:35:48.745Z,18.45
2022-12-11T16:38:16.755Z,16.20
2022-12-11T16:40:45.651Z,18.20
2022-12-11T16:43:13.871Z,18.10
2022-12-11T16:45:42.114Z,18.13
2022-12-11T16:48:10.229Z,16.88
2022-12-11T16:50:42.193Z,16.75
2022-12-11T16:53:10.330Z,19.02
2022-12-11T16:55:40.680Z,16.95
2022-12-11T16:58:09.650Z,16.38
2022-12-11T17:00:37.472Z,17.63
2022-12-11T17:03:05.592Z,17.57
2022-12-11T17:05:33.517Z,18.63
2022-12-11T17:08:02.800Z,16.45
2022-12-11T17:10:30.887Z,17.58
2022-12-11T17:12:58.745Z,17.40
2022-12-11T17:15:26.608Z,16.80
2022-12-11T17:17:54.470Z,17.02
2022-12-11T17:20:22.362Z,17.30
2022-12-11T17:22:50.155Z,19.05
2022-12-11T17:25:22.484Z,17.35
2022-12-11T17:27:50.916Z,17.88
2022-12-11T17:30:19.023Z,19.55
2022-12-11T17:32:48.672Z,18.92
2022-12-11T17:35:17.183Z,19.55
2022-12-11T17:37:44.977Z,19.60
2022-12-11T17:40:13.144Z,19.27
2022-12-11T17:42:44.160Z,18.50
2022-12-11T17:45:12.787Z,20.02
2022-12-11T17:47:40.937Z,19.60
2022-12-11T17:50:09.426Z,21.85
2022-12-11T17:52:43.808Z,20.33
2022-12-11T17:55:12.656Z,21.35
2022-12-11T17:57:42.046Z,19.77
2022-12-11T18:00:11.011Z,18.92
2022-12-11T18:02:38.808Z,20.35
2022-12-11T18:05:07.183Z,17.93
2022-12-11T18:07:37.234Z,21.48
2022-12-11T18:10:06.191Z,20.05
2022-12-11T18:12:34.351Z,19.65
2022-12-11T18:15:04.492Z,21.85
2022-12-11T18:17:35.395Z,20.73
2022-12-11T18:20:03.541Z,21.10
2022-12-11T18:22:31.537Z,20.27
2022-12-11T18:25:00.973Z,21.15
2022-12-11T18:27:29.654Z,19.40
2022-12-11T18:29:57.548Z,20.90
2022-12-11T18:32:26.702Z,19.50
2022-12-11T18:34:54.613Z,20.42
2022-12-11T18:37:27.792Z,20.97
2022-12-11T18:39:56.373Z,22.15
2022-12-11T18:42:32.767Z,21.63
2022-12-11T18:45:01.537Z,24.35
2022-12-11T18:47:30.796Z,24.23
2022-12-11T18:50:03.901Z,23.42
2022-12-11T18:52:35.179Z,25.38
2022-12-11T18:55:03.220Z,29.65
2022-12-11T18:57:31.090Z,28.67
2022-12-11T19:00:02.440Z,28.58
2022-12-11T19:02:32.084Z,30.05
2022-12-11T19:04:59.987Z,27.00
2022-12-11T19:07:28.380Z,28.10
2022-12-11T19:09:56.233Z,30.15
2022-12-11T19:12:24.089Z,29.13
2022-12-11T19:14:52.052Z,28.50
2022-12-11T19:17:19.928Z,31.98
2022-12-11T19:19:49.139Z,27.40
2022-12-11T19:22:17.441Z,30.98
2022-12-11T19:24:45.489Z,29.17
2022-12-11T19:27:13.952Z,29.98
2022-12-11T19:29:42.122Z,31.30
2022-12-11T19:32:09.936Z,32.17
2022-12-11T19:34:39.501Z,30.58
2022-12-11T19:37:08.917Z,31.63
2022-12-11T19:39:40.141Z,28.53
2022-12-11T19:42:08.369Z,33.35
2022-12-11T19:44:36.337Z,33.15
2022-12-11T19:47:04.545Z,34.33
2022-12-11T19:49:33.698Z,32.50
2022-12-11T19:52:01.661Z,30.55
2022-12-11T19:54:31.175Z,31.98
2022-12-11T19:56:59.017Z,33.58
2022-12-11T19:59:27.054Z,34.92
2022-12-11T20:01:55.299Z,29.17
2022-12-11T20:04:23.574Z,29.95
2022-12-11T20:06:53.241Z,30.40
2022-12-11T20:09:21.193Z,31.35
2022-12-11T20:11:51.608Z,31.52
2022-12-11T20:14:22.008Z,31.70
2022-12-11T20:19:38.105Z,29.98
2022-12-11T20:22:06.038Z,27.77
2022-12-11T20:24:34.511Z,28.60
2022-12-11T20:27:04.211Z,29.92
2022-12-11T20:29:32.159Z,30.48
2022-12-11T20:32:00.438Z,29.30
2022-12-11T20:34:28.583Z,29.67
2022-12-11T20:36:56.443Z,30.90
2022-12-11T20:39:26.814Z,31.63
2022-12-11T20:41:54.795Z,31.08
2022-12-11T20:44:23.928Z,28.63
2022-12-11T20:46:51.792Z,28.13
2022-12-11T20:49:19.652Z,29.53
2022-12-11T20:51:47.505Z,28.98
2022-12-11T20:54:15.374Z,27.57
2022-12-11T20:56:43.313Z,28.77
2022-12-11T20:59:11.921Z,31.30
2022-12-11T21:01:41.613Z,28.77
2022-12-11T21:04:09.730Z,28.40
2022-12-11T21:06:40.529Z,30.92
2022-12-11T21:09:10.395Z,29.40
2022-12-11T21:11:38.224Z,30.80
2022-12-11T21:14:06.932Z,30.35
2022-12-11T21:16:37.250Z,30.48
2022-12-11T21:19:08.522Z,30.90
2022-12-11T21:21:40.445Z,28.35
2022-12-11T21:24:09.623Z,27.35
2022-12-11T21:26:37.426Z,29.15
2022-12-11T21:29:05.519Z,31.52
2022-12-11T21:31:33.473Z,33.60
2022-12-11T21:34:01.603Z,31.25
2022-12-11T21:36:31.067Z,31.67
2022-12-11T21:38:59.800Z,31.80
2022-12-11T21:41:28.277Z,32.53
2022-12-11T21:46:45.405Z,35.15
2022-12-11T21:49:13.366Z,31.42
2022-12-11T21:51:47.040Z,33.13
2022-12-11T21:54:18.583Z,34.80
2022-12-11T21:56:46.530Z,33.67
2022-12-11T21:59:14.495Z,32.53
2022-12-11T22:01:45.804Z,33.95
2022-12-11T22:04:15.232Z,34.60
2022-12-11T22:06:47.223Z,35.20
2022-12-11T22:09:16.712Z,31.57
2022-12-11T22:11:47.000Z,30.25
2022-12-11T22:14:17.014Z,34.72
2022-12-11T22:16:45.589Z,32.38
2022-12-11T22:19:13.622Z,32.55
2022-12-11T22:21:41.830Z,33.37
2022-12-11T22:24:11.185Z,34.38
2022-12-11T22:26:42.136Z,34.00
2022-12-11T22:29:09.975Z,32.10
2022-12-11T22:31:38.936Z,31.60
2022-12-11T22:34:06.758Z,31.60
2022-12-11T22:36:34.626Z,33.23
2022-12-11T22:39:02.900Z,33.75
2022-12-11T22:41:33.995Z,35.33
2022-12-11T22:44:01.931Z,34.80
2022-12-11T22:46:31.075Z,32.75
2022-12-11T22:48:59.377Z,33.70
2022-12-11T22:51:27.585Z,34.92
2022-12-11T22:53:55.878Z,33.30
2022-12-11T22:56:23.815Z,32.27
2022-12-11T22:58:52.943Z,33.40
2022-12-11T23:01:23.296Z,32.77
2022-12-11T23:03:51.900Z,32.20
2022-12-11T23:06:22.250Z,33.28
2022-12-11T23:08:50.534Z,32.58
2022-12-11T23:11:20.953Z,32.67
2022-12-11T23:13:48.805Z,31.90
2022-12-11T23:16:18.330Z,33.80
2022-12-11T23:18:46.706Z,32.40
2022-12-11T23:21:14.894Z,33.22
2022-12-11T23:23:43.348Z,30.03
2022-12-11T23:26:12.867Z,33.97
2022-12-11T23:28:41.792Z,31.27
2022-12-11T23:31:10.262Z,34.13
2022-12-11T23:33:39.955Z,31.90
2022-12-11T23:36:09.118Z,31.10
2022-12-11T23:38:36.994Z,30.42
2022-12-11T23:41:05.800Z,32.73
2022-12-11T23:43:35.039Z,31.27
2022-12-11T23:46:03.184Z,30.77
2022-12-11T23:48:31.409Z,33.27
2022-12-11T23:51:02.282Z,33.13
2022-12-11T23:53:30.154Z,31.47
2022-12-11T23:55:58.083Z,34.00
2022-12-11T23:58:25.888Z,30.67
